< < Back
Terminal Aerodrome Forecast


Current Version              Previous Versions:   1  2  3  4  5  6  7  8  9  

Terminal Aerodrome Forecast

327
FTUS44 KBMX 211900 AAA
TAFANB
TAF AMD
KANB 211958Z 2120/2218 VRB05KT P6SM VCTS BKN040CB
     FM220500 VRB03KT P6SM BKN025
     FM220800 00000KT 2SM BR BKN007 OVC015
     FM221400 10005KT 6SM BR SCT007 BKN015=



Latest METAR

909
SAUS70 KWBC 221300
MTRANB
METAR KANB 221253Z AUTO 08006KT 10SM BKN020 OVC095 23/22 A3013 RMK AO2
SLP195 T02330217


USA.gov is the U.S. government's official web portal to all federal, state and local government web resources and services.